createdAt,value
2023-02-14T00:02:25.240Z,4.29
2023-02-14T00:04:54.739Z,4.26
2023-02-14T00:07:26.739Z,4.24
2023-02-14T00:09:56.220Z,4.26
2023-02-14T00:12:25.652Z,4.19
2023-02-14T00:15:07.588Z,4.17
2023-02-14T00:17:36.974Z,4.17
2023-02-14T00:20:06.973Z,4.18
2023-02-14T00:22:41.361Z,4.19
2023-02-14T00:25:11.152Z,4.18
2023-02-14T00:27:40.702Z,4.17
2023-02-14T00:30:11.778Z,4.12
2023-02-14T00:32:42.037Z,4.11
2023-02-14T00:35:12.329Z,4.06
2023-02-14T00:37:44.425Z,4.18
2023-02-14T00:40:14.598Z,4.24
2023-02-14T00:42:44.042Z,4.24
2023-02-14T00:45:13.464Z,4.24
2023-02-14T00:47:42.926Z,4.20
2023-02-14T00:50:13.118Z,4.18
2023-02-14T00:52:45.087Z,4.18
2023-02-14T00:55:14.526Z,4.18
2023-02-14T00:57:43.907Z,4.17
2023-02-14T01:00:15.017Z,4.21
2023-02-14T01:02:44.452Z,4.20
2023-02-14T01:05:13.920Z,4.17
2023-02-14T01:07:45.939Z,4.21
2023-02-14T01:10:15.415Z,4.23
2023-02-14T01:12:44.866Z,4.20
2023-02-14T01:15:14.245Z,4.23
2023-02-14T01:17:43.660Z,4.21
2023-02-14T01:20:14.748Z,4.18
2023-02-14T01:22:46.845Z,4.15
2023-02-14T01:25:16.305Z,4.10
2023-02-14T01:27:45.814Z,4.00
2023-02-14T01:30:16.824Z,3.95
2023-02-14T01:32:46.253Z,3.90
2023-02-14T01:35:15.672Z,3.89
2023-02-14T01:37:47.724Z,3.91
2023-02-14T01:40:17.900Z,3.91
2023-02-14T01:42:47.354Z,3.94
2023-02-14T01:45:20.806Z,3.97
2023-02-14T01:47:53.548Z,3.93
2023-02-14T01:50:25.359Z,3.98
2023-02-14T01:53:01.214Z,3.95
2023-02-14T01:55:33.208Z,3.95
2023-02-14T01:58:04.751Z,4.01
2023-02-14T02:00:46.736Z,4.02
2023-02-14T02:03:17.153Z,4.03
2023-02-14T02:05:50.924Z,3.96
2023-02-14T02:08:23.096Z,3.95
2023-02-14T02:10:52.477Z,3.92
2023-02-14T02:13:23.887Z,3.88
2023-02-14T02:16:01.087Z,3.84
2023-02-14T02:18:39.292Z,3.92
2023-02-14T02:21:46.065Z,4.05
2023-02-14T02:24:33.759Z,4.14
2023-02-14T02:27:27.486Z,4.07
2023-02-14T02:30:30.121Z,4.27
2023-02-14T02:33:19.691Z,4.48
2023-02-14T02:35:59.322Z,4.64
2023-02-14T02:38:39.129Z,4.50
2023-02-14T02:41:18.089Z,4.35
2023-02-14T02:43:55.747Z,4.33
2023-02-14T02:46:40.479Z,4.24
2023-02-14T02:49:37.198Z,4.29
2023-02-14T02:52:23.831Z,4.47
2023-02-14T02:54:58.412Z,4.33
2023-02-14T02:57:31.176Z,4.66
2023-02-14T03:00:01.135Z,4.73
2023-02-14T03:02:33.628Z,4.56
2023-02-14T03:05:02.866Z,4.67
2023-02-14T03:07:40.477Z,4.64
2023-02-14T03:10:15.544Z,4.68
2023-02-14T03:13:29.048Z,4.48
2023-02-14T03:16:27.385Z,4.18
2023-02-14T03:19:38.193Z,4.00
2023-02-14T03:22:09.242Z,4.17
2023-02-14T03:24:47.479Z,4.35
2023-02-14T03:27:21.518Z,4.35
2023-02-14T03:29:59.819Z,4.39
2023-02-14T03:32:36.614Z,4.43
2023-02-14T03:35:14.381Z,4.08
2023-02-14T03:37:48.173Z,4.19
2023-02-14T03:40:23.800Z,4.17
2023-02-14T03:42:55.792Z,4.09
2023-02-14T03:45:31.605Z,4.10
2023-02-14T03:48:03.797Z,4.36
2023-02-14T03:50:34.412Z,4.29
2023-02-14T03:53:04.488Z,4.16
2023-02-14T03:55:40.394Z,4.19
2023-02-14T03:58:17.226Z,4.21
2023-02-14T04:00:47.807Z,4.26
2023-02-14T04:03:18.179Z,4.37
2023-02-14T04:05:52.593Z,4.43
2023-02-14T04:08:25.935Z,4.66
2023-02-14T04:11:00.017Z,4.37
2023-02-14T04:13:30.571Z,4.14
2023-02-14T04:16:00.167Z,3.92
2023-02-14T04:18:50.856Z,4.16
2023-02-14T04:21:20.409Z,4.40
2023-02-14T04:23:49.865Z,4.23
2023-02-14T04:26:21.866Z,4.27
2023-02-14T04:28:51.302Z,4.09
2023-02-14T04:31:20.866Z,4.09
2023-02-14T04:33:51.318Z,4.11
2023-02-14T04:36:20.740Z,4.25
2023-02-14T04:38:50.200Z,4.32
2023-02-14T04:41:22.252Z,4.03
2023-02-14T04:43:51.709Z,3.97
2023-02-14T04:46:21.180Z,3.86
2023-02-14T04:48:50.619Z,3.99
2023-02-14T04:51:20.069Z,4.01
2023-02-14T04:53:49.460Z,4.01
2023-02-14T04:56:18.873Z,4.03
2023-02-14T04:58:50.906Z,4.15
2023-02-14T05:01:20.352Z,4.29
2023-02-14T05:03:49.797Z,4.30
2023-02-14T05:06:19.177Z,4.35
2023-02-14T05:08:48.678Z,4.27
2023-02-14T05:11:18.118Z,4.18
2023-02-14T05:13:50.121Z,4.22
2023-02-14T05:16:19.648Z,4.66
2023-02-14T05:18:49.048Z,5.52
2023-02-14T05:21:18.481Z,5.42
2023-02-14T05:23:47.985Z,4.71
2023-02-14T05:26:17.478Z,4.67
2023-02-14T05:28:46.899Z,4.68
2023-02-14T05:31:19.227Z,4.56
2023-02-14T05:33:48.742Z,4.44
2023-02-14T05:36:18.163Z,4.36
2023-02-14T05:38:47.575Z,4.42
2023-02-14T05:41:16.969Z,4.35
2023-02-14T05:43:46.414Z,4.51
2023-02-14T05:46:16.012Z,4.60
2023-02-14T05:48:48.372Z,4.79
2023-02-14T05:51:17.996Z,5.17
2023-02-14T05:53:47.362Z,4.77
2023-02-14T05:56:16.840Z,4.58
2023-02-14T05:58:46.664Z,4.52
2023-02-14T06:01:16.082Z,4.27
2023-02-14T06:03:48.155Z,4.04
2023-02-14T06:06:17.616Z,3.90
2023-02-14T06:08:47.026Z,3.79
2023-02-14T06:11:16.546Z,3.73
2023-02-14T06:13:45.953Z,3.73
2023-02-14T06:16:15.340Z,3.70
2023-02-14T06:18:44.745Z,3.70
2023-02-14T06:21:16.728Z,3.67
2023-02-14T06:23:46.156Z,3.59
2023-02-14T06:26:15.591Z,3.60
2023-02-14T06:28:45.441Z,3.55
2023-02-14T06:31:18.534Z,3.53
2023-02-14T06:33:47.929Z,3.51
2023-02-14T06:36:20.025Z,3.51
2023-02-14T06:38:50.526Z,3.54
2023-02-14T06:41:20.313Z,3.51
2023-02-14T06:43:50.764Z,3.58
2023-02-14T06:46:21.116Z,3.60
2023-02-14T06:48:50.790Z,3.58
2023-02-14T06:51:22.862Z,3.55
2023-02-14T06:53:52.265Z,3.53
2023-02-14T06:56:21.638Z,3.47
2023-02-14T06:58:51.072Z,3.49
2023-02-14T07:01:20.512Z,3.48
2023-02-14T07:03:49.912Z,3.43
2023-02-14T07:06:21.922Z,3.55
2023-02-14T07:08:51.351Z,3.53
2023-02-14T07:11:20.911Z,3.51
2023-02-14T07:13:50.297Z,3.52
2023-02-14T07:16:19.774Z,3.57
2023-02-14T07:18:49.211Z,3.62
2023-02-14T07:21:18.814Z,3.65
2023-02-14T07:23:50.815Z,3.65
2023-02-14T07:26:20.689Z,3.68
2023-02-14T07:28:51.629Z,3.61
2023-02-14T07:31:23.636Z,3.62
2023-02-14T07:33:53.331Z,3.63
2023-02-14T07:36:22.907Z,3.66
2023-02-14T07:38:54.923Z,3.67
2023-02-14T07:41:24.303Z,3.66
2023-02-14T07:43:53.713Z,3.70
2023-02-14T07:46:23.132Z,3.73
2023-02-14T07:48:52.632Z,3.75
2023-02-14T07:51:22.051Z,3.77
2023-02-14T07:53:51.474Z,3.80
2023-02-14T07:56:23.569Z,3.84
2023-02-14T07:58:52.981Z,3.91
2023-02-14T08:01:22.452Z,3.93
2023-02-14T08:03:52.730Z,3.92
2023-02-14T08:06:22.926Z,3.95
2023-02-14T08:08:52.370Z,3.94
2023-02-14T08:11:36.856Z,3.97
2023-02-14T08:14:06.918Z,4.04
2023-02-14T08:16:38.137Z,4.11
2023-02-14T08:19:07.553Z,4.12
2023-02-14T08:21:37.084Z,4.12
2023-02-14T08:24:06.945Z,4.21
2023-02-14T08:26:39.387Z,4.25
2023-02-14T08:29:08.852Z,4.31
2023-02-14T08:31:38.449Z,4.38
2023-02-14T08:34:08.215Z,4.40
2023-02-14T08:36:37.890Z,4.45
2023-02-14T08:39:08.261Z,4.49
2023-02-14T08:41:40.398Z,4.54
2023-02-14T08:44:09.787Z,4.63
2023-02-14T08:46:39.309Z,4.70
2023-02-14T08:49:08.926Z,4.76
2023-02-14T08:51:38.345Z,4.75
2023-02-14T08:54:07.796Z,4.81
2023-02-14T08:56:40.658Z,4.80
2023-02-14T08:59:10.179Z,4.89
2023-02-14T09:01:39.647Z,4.93
2023-02-14T09:04:09.124Z,4.97
2023-02-14T09:06:40.681Z,5.01
2023-02-14T09:09:10.166Z,5.04
2023-02-14T09:11:42.205Z,5.09
2023-02-14T09:14:11.768Z,5.19
2023-02-14T09:16:41.229Z,5.24
2023-02-14T09:19:10.652Z,5.26
2023-02-14T09:21:40.135Z,5.27
2023-02-14T09:24:09.653Z,5.37
2023-02-14T09:26:42.274Z,5.40
2023-02-14T09:29:13.294Z,5.43
2023-02-14T09:31:42.777Z,5.53
2023-02-14T09:34:12.309Z,5.67
2023-02-14T09:36:54.223Z,5.72
2023-02-14T09:39:23.696Z,5.66
2023-02-14T09:42:17.257Z,5.57
2023-02-14T09:44:50.299Z,5.68
2023-02-14T09:47:24.272Z,5.80
2023-02-14T09:49:54.831Z,5.91
2023-02-14T09:52:27.999Z,6.02
2023-02-14T09:54:59.204Z,6.14
2023-02-14T09:57:38.791Z,6.23
2023-02-14T10:00:19.555Z,6.30
2023-02-14T10:02:59.431Z,6.40
2023-02-14T10:05:31.935Z,6.41
2023-02-14T10:08:03.831Z,6.34
2023-02-14T10:10:39.581Z,6.28
2023-02-14T10:13:17.026Z,6.40
2023-02-14T10:15:48.387Z,6.51
2023-02-14T10:18:22.002Z,6.40
2023-02-14T10:20:54.716Z,6.58
2023-02-14T10:23:34.559Z,6.75
2023-02-14T10:26:06.338Z,6.81
2023-02-14T10:28:40.543Z,6.78
2023-02-14T10:31:24.255Z,6.80
2023-02-14T10:33:57.880Z,6.95
2023-02-14T10:36:41.138Z,6.94
2023-02-14T10:39:20.113Z,6.85
2023-02-14T10:41:53.286Z,6.96
2023-02-14T10:44:43.204Z,6.98
2023-02-14T10:47:33.897Z,6.94
2023-02-14T10:50:09.611Z,8.27
2023-02-14T10:52:43.511Z,7.97
2023-02-14T10:55:31.535Z,8.09
2023-02-14T10:58:05.338Z,7.91
2023-02-14T11:00:38.675Z,7.66
2023-02-14T11:03:10.950Z,7.71
2023-02-14T11:05:46.573Z,7.77
2023-02-14T11:08:25.017Z,7.90
2023-02-14T11:10:55.274Z,7.84
2023-02-14T11:13:36.856Z,7.93
2023-02-14T11:16:10.549Z,8.15
2023-02-14T11:18:41.695Z,7.79
2023-02-14T11:21:13.484Z,7.67
2023-02-14T11:23:44.417Z,7.94
2023-02-14T11:26:25.322Z,8.13
2023-02-14T11:28:58.648Z,8.40
2023-02-14T11:31:37.185Z,8.65
2023-02-14T11:34:08.481Z,8.67
2023-02-14T11:36:43.098Z,8.86
2023-02-14T11:39:22.479Z,8.88
2023-02-14T11:41:53.622Z,8.80
2023-02-14T11:44:26.152Z,8.80
2023-02-14T11:47:00.109Z,8.82
2023-02-14T11:49:34.642Z,9.01
2023-02-14T11:52:11.964Z,9.32
2023-02-14T11:54:44.947Z,8.90
2023-02-14T11:57:16.498Z,8.90
2023-02-14T11:59:48.545Z,8.95
2023-02-14T12:02:28.537Z,9.09
2023-02-14T12:04:59.692Z,9.08
2023-02-14T12:07:31.504Z,9.08
2023-02-14T12:10:22.866Z,9.25
2023-02-14T12:12:58.548Z,9.71
2023-02-14T12:15:34.554Z,9.52
2023-02-14T12:18:20.979Z,9.49
2023-02-14T12:20:57.065Z,9.66
2023-02-14T12:23:29.693Z,9.56
2023-02-14T12:26:02.948Z,9.54
2023-02-14T12:28:38.523Z,9.52
2023-02-14T12:31:13.170Z,9.56
2023-02-14T12:33:47.146Z,9.69
2023-02-14T12:36:28.385Z,9.89
2023-02-14T12:39:06.079Z,9.75
2023-02-14T12:41:45.008Z,9.98
2023-02-14T12:44:17.710Z,10.13
2023-02-14T12:46:57.590Z,10.11
2023-02-14T12:49:54.931Z,10.51
2023-02-14T12:52:36.819Z,10.34
2023-02-14T12:55:21.413Z,10.58
2023-02-14T12:57:54.885Z,10.86
2023-02-14T13:00:34.236Z,11.49
2023-02-14T13:03:40.615Z,11.45
2023-02-14T13:06:18.124Z,11.40
2023-02-14T13:09:01.955Z,11.96
2023-02-14T13:11:38.827Z,12.40
2023-02-14T13:14:17.484Z,12.61
2023-02-14T13:16:49.884Z,12.99
2023-02-14T13:19:32.355Z,12.59
2023-02-14T13:22:04.697Z,12.53
2023-02-14T13:24:40.033Z,12.86
2023-02-14T13:27:10.786Z,13.22
2023-02-14T13:29:46.776Z,12.85
2023-02-14T13:32:18.787Z,13.30
2023-02-14T13:34:49.399Z,13.71
2023-02-14T13:37:22.984Z,13.90
2023-02-14T13:39:56.545Z,13.28
2023-02-14T13:42:54.169Z,13.29
2023-02-14T13:45:53.820Z,13.88
2023-02-14T13:48:24.594Z,14.84
2023-02-14T13:50:57.764Z,14.77
2023-02-14T13:53:43.493Z,15.12
2023-02-14T13:56:34.576Z,14.38
2023-02-14T13:59:06.894Z,15.27
2023-02-14T14:01:42.312Z,14.83
2023-02-14T14:04:36.663Z,14.56
2023-02-14T14:07:22.189Z,15.44
2023-02-14T14:10:04.865Z,15.33
2023-02-14T14:12:46.589Z,14.81
2023-02-14T14:15:21.075Z,14.62
2023-02-14T14:18:20.581Z,14.49
2023-02-14T14:20:52.544Z,15.03
2023-02-14T14:23:37.129Z,15.50
2023-02-14T14:26:36.866Z,15.25
2023-02-14T14:29:13.860Z,15.23
2023-02-14T14:31:44.286Z,15.36
2023-02-14T14:34:20.007Z,14.95
2023-02-14T14:36:49.914Z,14.95
2023-02-14T14:39:29.726Z,14.84
2023-02-14T14:42:08.207Z,15.84
2023-02-14T14:44:38.727Z,15.99
2023-02-14T14:47:08.326Z,15.37
2023-02-14T14:49:37.744Z,14.51
2023-02-14T14:52:08.872Z,14.05
2023-02-14T14:54:38.308Z,13.69
2023-02-14T14:57:10.338Z,13.58
2023-02-14T14:59:40.517Z,13.18
2023-02-14T15:02:24.333Z,12.61
2023-02-14T15:04:53.734Z,12.81
2023-02-14T15:07:30.327Z,12.50
2023-02-14T15:09:59.766Z,12.25
2023-02-14T15:12:56.050Z,12.02
2023-02-14T15:15:25.490Z,12.16
2023-02-14T15:17:55.053Z,12.23
2023-02-14T15:20:26.531Z,12.08
2023-02-14T15:22:56.489Z,12.20
2023-02-14T15:25:29.168Z,12.04
2023-02-14T15:28:01.187Z,12.00
2023-02-14T15:30:34.246Z,11.99
2023-02-14T15:33:05.085Z,11.44
2023-02-14T15:35:36.111Z,11.04
2023-02-14T15:38:07.433Z,10.87
2023-02-14T15:40:38.855Z,10.92
2023-02-14T15:43:25.116Z,11.31
2023-02-14T15:45:58.116Z,11.40
2023-02-14T15:48:30.745Z,11.26
2023-02-14T15:51:01.539Z,11.23
2023-02-14T15:53:38.453Z,11.12
2023-02-14T15:56:09.993Z,10.94
2023-02-14T15:58:45.109Z,10.76
2023-02-14T16:01:14.722Z,10.40
2023-02-14T16:03:46.088Z,10.29
2023-02-14T16:06:19.423Z,10.30
2023-02-14T16:08:58.063Z,10.11
2023-02-14T16:11:31.758Z,9.80
2023-02-14T16:14:22.799Z,9.47
2023-02-14T16:17:03.035Z,9.58
2023-02-14T16:19:37.475Z,9.38
2023-02-14T16:22:07.472Z,9.38
2023-02-14T16:24:38.053Z,9.15
2023-02-14T16:27:09.683Z,9.02
2023-02-14T16:29:41.712Z,8.96
2023-02-14T16:32:17.372Z,8.96
2023-02-14T16:34:48.423Z,8.89
2023-02-14T16:37:23.260Z,8.78
2023-02-14T16:39:54.536Z,8.61
2023-02-14T16:42:23.916Z,8.55
2023-02-14T16:44:55.961Z,8.43
2023-02-14T16:47:27.779Z,8.29
2023-02-14T16:49:57.208Z,8.20
2023-02-14T16:52:28.482Z,8.22
2023-02-14T16:54:57.953Z,8.15
2023-02-14T16:57:29.812Z,8.03
2023-02-14T17:00:01.800Z,7.99
2023-02-14T17:02:31.632Z,8.02
2023-02-14T17:05:01.067Z,7.93
2023-02-14T17:07:32.683Z,7.91
2023-02-14T17:10:04.797Z,7.77
2023-02-14T17:12:36.532Z,7.66
2023-02-14T17:15:12.626Z,7.56
2023-02-14T17:17:42.086Z,7.42
2023-02-14T17:20:12.375Z,7.38
2023-02-14T17:22:42.610Z,7.88
2023-02-14T17:25:12.400Z,8.23
2023-02-14T17:27:44.555Z,7.96
2023-02-14T17:30:17.842Z,7.77
2023-02-14T17:32:49.542Z,7.74
2023-02-14T17:35:19.488Z,7.74
2023-02-14T17:37:48.866Z,7.50
2023-02-14T17:40:18.569Z,7.48
2023-02-14T17:42:47.954Z,7.24
2023-02-14T17:45:20.071Z,7.12
2023-02-14T17:47:49.520Z,7.05
2023-02-14T17:50:19.051Z,7.00
2023-02-14T17:52:48.596Z,6.94
2023-02-14T17:55:18.815Z,6.98
2023-02-14T17:57:52.381Z,6.85
2023-02-14T18:00:25.654Z,6.80
2023-02-14T18:02:55.100Z,6.83
2023-02-14T18:05:24.587Z,6.88
2023-02-14T18:07:54.175Z,6.80
2023-02-14T18:10:23.715Z,6.66
2023-02-14T18:12:53.103Z,6.67
2023-02-14T18:15:26.726Z,6.52
2023-02-14T18:17:56.188Z,6.42
2023-02-14T18:20:25.625Z,6.35
2023-02-14T18:22:55.059Z,6.32
2023-02-14T18:25:24.501Z,6.24
2023-02-14T18:27:53.891Z,6.20
2023-02-14T18:30:26.051Z,6.16
2023-02-14T18:32:56.148Z,6.11
2023-02-14T18:35:25.580Z,6.10
2023-02-14T18:37:55.010Z,6.03
2023-02-14T18:40:24.436Z,6.00
2023-02-14T18:42:53.873Z,6.05
2023-02-14T18:45:26.032Z,6.02
2023-02-14T18:47:55.527Z,5.89
2023-02-14T18:50:25.015Z,5.77
2023-02-14T18:52:54.475Z,5.83
2023-02-14T18:55:24.838Z,5.81
2023-02-14T18:57:54.335Z,5.85
2023-02-14T19:00:27.211Z,5.78
2023-02-14T19:02:56.862Z,5.64
2023-02-14T19:05:26.305Z,5.58
2023-02-14T19:07:58.926Z,5.54
2023-02-14T19:10:28.358Z,5.48
2023-02-14T19:12:57.857Z,5.46
2023-02-14T19:15:30.040Z,5.39
2023-02-14T19:17:59.492Z,5.42
2023-02-14T19:20:28.941Z,5.38
2023-02-14T19:22:58.316Z,5.39
2023-02-14T19:25:29.527Z,5.50
2023-02-14T19:27:58.951Z,5.46
2023-02-14T19:30:30.993Z,5.27
2023-02-14T19:33:00.422Z,5.29
2023-02-14T19:35:29.845Z,5.39
2023-02-14T19:38:03.414Z,5.36
2023-02-14T19:40:33.468Z,5.31
2023-02-14T19:43:02.858Z,5.21
2023-02-14T19:45:35.051Z,5.13
2023-02-14T19:48:04.439Z,5.03
2023-02-14T19:50:33.904Z,5.00
2023-02-14T19:53:03.290Z,5.02
2023-02-14T19:55:33.088Z,5.04
2023-02-14T19:58:02.480Z,5.10
2023-02-14T20:00:35.148Z,5.03
2023-02-14T20:03:06.165Z,5.03
2023-02-14T20:05:35.655Z,5.08
2023-02-14T20:08:05.071Z,5.13
2023-02-14T20:10:34.570Z,5.10
2023-02-14T20:13:03.951Z,5.12
2023-02-14T20:15:37.551Z,5.13
2023-02-14T20:18:07.620Z,5.12
2023-02-14T20:20:49.328Z,5.17
2023-02-14T20:23:18.763Z,5.18
2023-02-14T20:25:48.127Z,5.11
2023-02-14T20:28:17.574Z,5.09
2023-02-14T20:30:49.807Z,5.05
2023-02-14T20:33:19.274Z,5.06
2023-02-14T20:35:48.668Z,5.04
2023-02-14T20:38:18.118Z,5.00
2023-02-14T20:40:47.549Z,4.69
2023-02-14T20:43:17.004Z,4.77
2023-02-14T20:45:49.034Z,4.82
2023-02-14T20:48:18.491Z,4.79
2023-02-14T20:50:47.945Z,4.62
2023-02-14T20:53:17.399Z,4.48
2023-02-14T20:55:47.588Z,4.50
2023-02-14T20:58:17.068Z,4.51
2023-02-14T21:00:49.168Z,4.53
2023-02-14T21:03:18.589Z,4.41
2023-02-14T21:05:50.381Z,4.32
2023-02-14T21:08:19.831Z,4.34
2023-02-14T21:10:49.250Z,4.27
2023-02-14T21:13:18.686Z,4.27
2023-02-14T21:15:50.781Z,4.22
2023-02-14T21:18:20.266Z,4.22
2023-02-14T21:20:50.914Z,4.21
2023-02-14T21:23:20.295Z,4.13
2023-02-14T21:25:49.941Z,4.16
2023-02-14T21:28:19.360Z,4.16
2023-02-14T21:30:51.382Z,4.10
2023-02-14T21:33:20.795Z,4.01
2023-02-14T21:35:50.207Z,3.88
2023-02-14T21:38:19.603Z,3.97
2023-02-14T21:40:49.032Z,4.07
2023-02-14T21:43:18.435Z,3.99
2023-02-14T21:46:02.132Z,3.89
2023-02-14T21:48:44.365Z,3.86
2023-02-14T21:51:15.380Z,3.86
2023-02-14T21:53:45.057Z,3.84
2023-02-14T21:56:18.042Z,3.71
2023-02-14T21:58:47.622Z,3.64
2023-02-14T22:01:21.483Z,3.62
2023-02-14T22:03:51.270Z,3.58
2023-02-14T22:06:20.995Z,3.61
2023-02-14T22:08:54.328Z,3.61
2023-02-14T22:11:24.938Z,3.64
2023-02-14T22:13:54.593Z,3.55
2023-02-14T22:16:27.337Z,3.37
2023-02-14T22:18:56.894Z,3.35
2023-02-14T22:21:28.603Z,3.33
2023-02-14T22:23:58.367Z,3.31
2023-02-14T22:26:29.504Z,3.32
2023-02-14T22:29:00.290Z,3.27
2023-02-14T22:31:36.087Z,3.26
2023-02-14T22:34:06.616Z,3.24
2023-02-14T22:36:36.333Z,3.19
2023-02-14T22:39:06.108Z,3.17
2023-02-14T22:41:37.761Z,3.17
2023-02-14T22:44:08.275Z,3.07
2023-02-14T22:46:40.288Z,3.09
2023-02-14T22:49:10.082Z,3.13
2023-02-14T22:51:41.156Z,3.09
2023-02-14T22:54:13.499Z,3.03
2023-02-14T22:56:44.112Z,3.00
2023-02-14T22:59:18.270Z,2.91
2023-02-14T23:01:51.122Z,2.86
2023-02-14T23:04:22.260Z,2.94
2023-02-14T23:06:52.264Z,2.86
2023-02-14T23:09:22.260Z,2.91
2023-02-14T23:11:52.394Z,3.06
2023-02-14T23:14:34.829Z,3.33
2023-02-14T23:17:19.959Z,3.00
2023-02-14T23:20:02.489Z,2.81
2023-02-14T23:22:33.247Z,2.76
2023-02-14T23:25:04.845Z,2.77
2023-02-14T23:27:36.281Z,2.62
2023-02-14T23:30:06.904Z,2.62
2023-02-14T23:32:39.042Z,2.60
2023-02-14T23:35:09.059Z,2.61
2023-02-14T23:37:38.529Z,2.50
2023-02-14T23:40:09.949Z,2.57
2023-02-14T23:42:39.542Z,2.70
2023-02-14T23:45:25.494Z,2.77
2023-02-14T23:47:57.517Z,2.60
2023-02-14T23:50:27.054Z,2.60
2023-02-14T23:52:56.431Z,2.67
2023-02-14T23:55:25.851Z,2.71
2023-02-14T23:57:55.232Z,2.68
